sensor_id;sensor_type;location;lat;lon;timestamp;temperature;humidity
33508;DHT22;25568;37.410;-122.096;2023-10-19T00:00:58;23.00;75.80
33508;DHT22;25568;37.410;-122.096;2023-10-19T00:03:26;23.00;75.40
33508;DHT22;25568;37.410;-122.096;2023-10-19T00:05:57;23.00;75.10
33508;DHT22;25568;37.410;-122.096;2023-10-19T00:08:24;23.00;75.00
33508;DHT22;25568;37.410;-122.096;2023-10-19T00:11:04;23.00;74.10
33508;DHT22;25568;37.410;-122.096;2023-10-19T00:13:35;23.00;74.00
33508;DHT22;25568;37.410;-122.096;2023-10-19T00:16:05;23.00;73.50
33508;DHT22;25568;37.410;-122.096;2023-10-19T00:18:38;23.00;73.40
33508;DHT22;25568;37.410;-122.096;2023-10-19T00:21:09;23.00;72.80
33508;DHT22;25568;37.410;-122.096;2023-10-19T00:23:46;23.00;72.50
33508;DHT22;25568;37.410;-122.096;2023-10-19T00:26:18;23.00;72.80
33508;DHT22;25568;37.410;-122.096;2023-10-19T00:28:47;23.00;71.70
33508;DHT22;25568;37.410;-122.096;2023-10-19T00:31:19;23.00;71.20
33508;DHT22;25568;37.410;-122.096;2023-10-19T00:33:48;23.00;71.50
33508;DHT22;25568;37.410;-122.096;2023-10-19T00:36:18;23.00;70.70
33508;DHT22;25568;37.410;-122.096;2023-10-19T00:38:49;23.00;70.90
33508;DHT22;25568;37.410;-122.096;2023-10-19T00:41:22;23.00;70.70
33508;DHT22;25568;37.410;-122.096;2023-10-19T00:43:56;23.00;70.00
33508;DHT22;25568;37.410;-122.096;2023-10-19T00:46:29;23.00;69.40
33508;DHT22;25568;37.410;-122.096;2023-10-19T00:49:05;23.00;70.90
33508;DHT22;25568;37.410;-122.096;2023-10-19T00:51:36;23.00;70.30
33508;DHT22;25568;37.410;-122.096;2023-10-19T00:54:22;23.00;70.50
33508;DHT22;25568;37.410;-122.096;2023-10-19T00:57:00;23.00;68.70
33508;DHT22;25568;37.410;-122.096;2023-10-19T00:59:38;23.00;68.50
33508;DHT22;25568;37.410;-122.096;2023-10-19T01:02:10;23.00;69.10
33508;DHT22;25568;37.410;-122.096;2023-10-19T01:04:56;23.00;69.90
33508;DHT22;25568;37.410;-122.096;2023-10-19T01:07:28;23.00;70.20
33508;DHT22;25568;37.410;-122.096;2023-10-19T01:10:00;23.00;68.20
33508;DHT22;25568;37.410;-122.096;2023-10-19T01:12:32;23.00;68.40
33508;DHT22;25568;37.410;-122.096;2023-10-19T01:15:07;23.00;67.40
33508;DHT22;25568;37.410;-122.096;2023-10-19T01:17:40;23.00;66.80
33508;DHT22;25568;37.410;-122.096;2023-10-19T01:20:11;23.00;67.30
33508;DHT22;25568;37.410;-122.096;2023-10-19T01:22:54;23.00;67.80
33508;DHT22;25568;37.410;-122.096;2023-10-19T01:25:45;23.10;68.10
33508;DHT22;25568;37.410;-122.096;2023-10-19T01:28:31;23.10;68.20
33508;DHT22;25568;37.410;-122.096;2023-10-19T01:31:11;23.10;68.70
33508;DHT22;25568;37.410;-122.096;2023-10-19T01:33:43;23.10;69.10
33508;DHT22;25568;37.410;-122.096;2023-10-19T01:36:13;23.20;69.30
33508;DHT22;25568;37.410;-122.096;2023-10-19T01:38:54;23.20;69.60
33508;DHT22;25568;37.410;-122.096;2023-10-19T01:41:27;23.20;69.80
33508;DHT22;25568;37.410;-122.096;2023-10-19T01:43:57;23.20;70.30
33508;DHT22;25568;37.410;-122.096;2023-10-19T01:46:31;23.30;70.50
33508;DHT22;25568;37.410;-122.096;2023-10-19T01:49:00;23.20;70.90
33508;DHT22;25568;37.410;-122.096;2023-10-19T01:51:31;23.30;71.20
33508;DHT22;25568;37.410;-122.096;2023-10-19T01:54:01;23.40;71.40
33508;DHT22;25568;37.410;-122.096;2023-10-19T01:56:31;23.40;71.50
33508;DHT22;25568;37.410;-122.096;2023-10-19T01:59:02;23.40;71.70
33508;DHT22;25568;37.410;-122.096;2023-10-19T02:01:32;23.40;72.10
33508;DHT22;25568;37.410;-122.096;2023-10-19T02:04:00;23.40;72.30
33508;DHT22;25568;37.410;-122.096;2023-10-19T02:06:31;23.40;72.60
33508;DHT22;25568;37.410;-122.096;2023-10-19T02:09:05;23.50;73.10
33508;DHT22;25568;37.410;-122.096;2023-10-19T02:11:49;23.50;73.20
33508;DHT22;25568;37.410;-122.096;2023-10-19T02:14:20;23.50;74.40
33508;DHT22;25568;37.410;-122.096;2023-10-19T02:16:48;23.50;73.50
33508;DHT22;25568;37.410;-122.096;2023-10-19T02:19:19;23.40;73.60
33508;DHT22;25568;37.410;-122.096;2023-10-19T02:21:48;23.50;73.70
33508;DHT22;25568;37.410;-122.096;2023-10-19T02:24:20;23.50;73.80
33508;DHT22;25568;37.410;-122.096;2023-10-19T02:26:50;23.40;73.80
33508;DHT22;25568;37.410;-122.096;2023-10-19T02:29:19;23.50;74.00
33508;DHT22;25568;37.410;-122.096;2023-10-19T02:31:49;23.40;74.00
33508;DHT22;25568;37.410;-122.096;2023-10-19T02:34:19;23.50;74.10
33508;DHT22;25568;37.410;-122.096;2023-10-19T02:36:47;23.40;74.10
33508;DHT22;25568;37.410;-122.096;2023-10-19T02:39:16;23.50;74.20
33508;DHT22;25568;37.410;-122.096;2023-10-19T02:41:46;23.50;74.10
33508;DHT22;25568;37.410;-122.096;2023-10-19T02:44:16;23.50;74.30
33508;DHT22;25568;37.410;-122.096;2023-10-19T02:46:52;23.50;74.30
33508;DHT22;25568;37.410;-122.096;2023-10-19T02:49:25;23.50;74.40
33508;DHT22;25568;37.410;-122.096;2023-10-19T02:51:53;23.50;74.30
33508;DHT22;25568;37.410;-122.096;2023-10-19T02:54:29;23.50;74.60
33508;DHT22;25568;37.410;-122.096;2023-10-19T02:57:01;23.50;74.50
33508;DHT22;25568;37.410;-122.096;2023-10-19T02:59:33;23.50;74.50
33508;DHT22;25568;37.410;-122.096;2023-10-19T03:02:01;23.50;74.60
33508;DHT22;25568;37.410;-122.096;2023-10-19T03:04:34;23.50;74.60
33508;DHT22;25568;37.410;-122.096;2023-10-19T03:07:02;23.50;74.70
33508;DHT22;25568;37.410;-122.096;2023-10-19T03:09:32;23.50;74.70
33508;DHT22;25568;37.410;-122.096;2023-10-19T03:12:05;23.50;74.80
33508;DHT22;25568;37.410;-122.096;2023-10-19T03:14:37;23.50;74.60
33508;DHT22;25568;37.410;-122.096;2023-10-19T03:17:04;23.50;74.80
33508;DHT22;25568;37.410;-122.096;2023-10-19T03:19:35;23.50;75.00
33508;DHT22;25568;37.410;-122.096;2023-10-19T03:22:03;23.50;75.00
33508;DHT22;25568;37.410;-122.096;2023-10-19T03:24:33;23.40;74.80
33508;DHT22;25568;37.410;-122.096;2023-10-19T03:27:05;23.50;74.90
33508;DHT22;25568;37.410;-122.096;2023-10-19T03:29:39;23.50;74.90
33508;DHT22;25568;37.410;-122.096;2023-10-19T03:32:12;23.50;75.00
33508;DHT22;25568;37.410;-122.096;2023-10-19T03:34:41;23.50;75.00
33508;DHT22;25568;37.410;-122.096;2023-10-19T03:37:14;23.50;75.10
33508;DHT22;25568;37.410;-122.096;2023-10-19T03:39:45;23.50;75.10
33508;DHT22;25568;37.410;-122.096;2023-10-19T03:42:16;23.50;75.30
33508;DHT22;25568;37.410;-122.096;2023-10-19T03:44:47;23.50;75.40
33508;DHT22;25568;37.410;-122.096;2023-10-19T03:47:20;23.50;75.40
33508;DHT22;25568;37.410;-122.096;2023-10-19T03:49:52;23.50;75.40
33508;DHT22;25568;37.410;-122.096;2023-10-19T03:52:21;23.50;75.60
33508;DHT22;25568;37.410;-122.096;2023-10-19T03:54:53;23.50;75.70
33508;DHT22;25568;37.410;-122.096;2023-10-19T03:57:25;23.50;75.70
33508;DHT22;25568;37.410;-122.096;2023-10-19T03:59:56;23.50;75.80
33508;DHT22;25568;37.410;-122.096;2023-10-19T04:02:25;23.50;75.90
33508;DHT22;25568;37.410;-122.096;2023-10-19T04:04:56;23.50;75.90
33508;DHT22;25568;37.410;-122.096;2023-10-19T04:07:25;23.50;75.90
33508;DHT22;25568;37.410;-122.096;2023-10-19T04:09:58;23.40;75.90
33508;DHT22;25568;37.410;-122.096;2023-10-19T04:12:38;23.50;76.10
33508;DHT22;25568;37.410;-122.096;2023-10-19T04:15:09;23.50;76.00
33508;DHT22;25568;37.410;-122.096;2023-10-19T04:17:42;23.40;75.90
33508;DHT22;25568;37.410;-122.096;2023-10-19T04:20:12;23.40;76.10
33508;DHT22;25568;37.410;-122.096;2023-10-19T04:22:56;23.40;76.00
33508;DHT22;25568;37.410;-122.096;2023-10-19T04:25:33;23.40;76.00
33508;DHT22;25568;37.410;-122.096;2023-10-19T04:28:04;23.40;76.00
33508;DHT22;25568;37.410;-122.096;2023-10-19T04:30:33;23.40;76.10
33508;DHT22;25568;37.410;-122.096;2023-10-19T04:33:04;23.40;76.10
33508;DHT22;25568;37.410;-122.096;2023-10-19T04:35:36;23.40;76.00
33508;DHT22;25568;37.410;-122.096;2023-10-19T04:38:08;23.40;76.00
33508;DHT22;25568;37.410;-122.096;2023-10-19T04:40:37;23.40;76.00
33508;DHT22;25568;37.410;-122.096;2023-10-19T04:43:07;23.40;76.00
33508;DHT22;25568;37.410;-122.096;2023-10-19T04:45:40;23.40;75.90
33508;DHT22;25568;37.410;-122.096;2023-10-19T04:48:09;23.40;76.00
33508;DHT22;25568;37.410;-122.096;2023-10-19T04:50:38;23.30;75.90
33508;DHT22;25568;37.410;-122.096;2023-10-19T04:53:06;23.30;75.90
33508;DHT22;25568;37.410;-122.096;2023-10-19T04:55:35;23.30;75.40
33508;DHT22;25568;37.410;-122.096;2023-10-19T04:58:06;22.90;70.70
33508;DHT22;25568;37.410;-122.096;2023-10-19T05:00:37;22.70;66.60
33508;DHT22;25568;37.410;-122.096;2023-10-19T05:03:06;22.40;66.40
33508;DHT22;25568;37.410;-122.096;2023-10-19T05:05:35;22.40;64.60
33508;DHT22;25568;37.410;-122.096;2023-10-19T05:08:05;22.30;63.30
33508;DHT22;25568;37.410;-122.096;2023-10-19T05:10:34;22.20;62.30
33508;DHT22;25568;37.410;-122.096;2023-10-19T05:13:03;22.10;61.20
33508;DHT22;25568;37.410;-122.096;2023-10-19T05:15:34;22.00;60.90
33508;DHT22;25568;37.410;-122.096;2023-10-19T05:18:04;22.00;60.20
33508;DHT22;25568;37.410;-122.096;2023-10-19T05:20:33;21.90;59.50
33508;DHT22;25568;37.410;-122.096;2023-10-19T05:23:06;21.80;59.70
33508;DHT22;25568;37.410;-122.096;2023-10-19T05:25:35;21.90;65.20
33508;DHT22;25568;37.410;-122.096;2023-10-19T05:28:05;21.90;69.50
33508;DHT22;25568;37.410;-122.096;2023-10-19T05:30:36;21.90;72.30
33508;DHT22;25568;37.410;-122.096;2023-10-19T05:33:05;22.00;74.50
33508;DHT22;25568;37.410;-122.096;2023-10-19T05:35:35;22.00;75.80
33508;DHT22;25568;37.410;-122.096;2023-10-19T05:38:09;22.10;77.60
33508;DHT22;25568;37.410;-122.096;2023-10-19T05:40:38;22.10;79.10
33508;DHT22;25568;37.410;-122.096;2023-10-19T05:43:09;22.00;80.00
33508;DHT22;25568;37.410;-122.096;2023-10-19T05:45:40;22.10;81.30
33508;DHT22;25568;37.410;-122.096;2023-10-19T05:48:09;22.10;81.50
33508;DHT22;25568;37.410;-122.096;2023-10-19T05:50:38;22.20;82.10
33508;DHT22;25568;37.410;-122.096;2023-10-19T05:53:09;22.30;82.50
33508;DHT22;25568;37.410;-122.096;2023-10-19T05:55:38;22.30;82.60
33508;DHT22;25568;37.410;-122.096;2023-10-19T05:58:07;22.30;82.30
33508;DHT22;25568;37.410;-122.096;2023-10-19T06:00:35;22.40;82.70
33508;DHT22;25568;37.410;-122.096;2023-10-19T06:03:06;22.30;82.70
33508;DHT22;25568;37.410;-122.096;2023-10-19T06:05:36;22.40;82.60
33508;DHT22;25568;37.410;-122.096;2023-10-19T06:08:05;22.40;82.40
33508;DHT22;25568;37.410;-122.096;2023-10-19T06:10:36;22.40;82.20
33508;DHT22;25568;37.410;-122.096;2023-10-19T06:13:05;22.50;82.00
33508;DHT22;25568;37.410;-122.096;2023-10-19T06:15:36;22.50;81.70
33508;DHT22;25568;37.410;-122.096;2023-10-19T06:18:07;22.50;81.50
33508;DHT22;25568;37.410;-122.096;2023-10-19T06:20:37;22.50;81.20
33508;DHT22;25568;37.410;-122.096;2023-10-19T06:23:11;22.50;81.00
33508;DHT22;25568;37.410;-122.096;2023-10-19T06:25:40;22.60;81.10
33508;DHT22;25568;37.410;-122.096;2023-10-19T06:28:10;22.60;80.80
33508;DHT22;25568;37.410;-122.096;2023-10-19T06:30:39;22.60;80.70
33508;DHT22;25568;37.410;-122.096;2023-10-19T06:33:11;22.60;80.90
33508;DHT22;25568;37.410;-122.096;2023-10-19T06:35:39;22.60;80.80
33508;DHT22;25568;37.410;-122.096;2023-10-19T06:38:08;22.60;80.80
33508;DHT22;25568;37.410;-122.096;2023-10-19T06:40:37;22.70;80.60
33508;DHT22;25568;37.410;-122.096;2023-10-19T06:43:06;22.60;80.50
33508;DHT22;25568;37.410;-122.096;2023-10-19T06:45:35;22.70;80.50
33508;DHT22;25568;37.410;-122.096;2023-10-19T06:48:05;22.70;80.50
33508;DHT22;25568;37.410;-122.096;2023-10-19T06:50:36;22.70;80.20
33508;DHT22;25568;37.410;-122.096;2023-10-19T06:53:06;22.70;80.60
33508;DHT22;25568;37.410;-122.096;2023-10-19T06:55:36;22.70;80.40
33508;DHT22;25568;37.410;-122.096;2023-10-19T06:58:05;22.70;80.40
33508;DHT22;25568;37.410;-122.096;2023-10-19T07:00:36;22.70;80.10
33508;DHT22;25568;37.410;-122.096;2023-10-19T07:03:09;22.70;80.00
33508;DHT22;25568;37.410;-122.096;2023-10-19T07:05:39;22.80;80.20
33508;DHT22;25568;37.410;-122.096;2023-10-19T07:08:08;22.70;80.20
33508;DHT22;25568;37.410;-122.096;2023-10-19T07:10:37;22.70;80.20
33508;DHT22;25568;37.410;-122.096;2023-10-19T07:13:06;22.70;80.30
33508;DHT22;25568;37.410;-122.096;2023-10-19T07:15:35;22.80;80.30
33508;DHT22;25568;37.410;-122.096;2023-10-19T07:18:08;22.70;80.40
33508;DHT22;25568;37.410;-122.096;2023-10-19T07:20:40;22.80;80.50
33508;DHT22;25568;37.410;-122.096;2023-10-19T07:23:09;22.80;80.50
33508;DHT22;25568;37.410;-122.096;2023-10-19T07:25:46;22.80;80.60
33508;DHT22;25568;37.410;-122.096;2023-10-19T07:28:20;22.80;80.60
33508;DHT22;25568;37.410;-122.096;2023-10-19T07:33:39;22.80;81.30
33508;DHT22;25568;37.410;-122.096;2023-10-19T07:36:14;22.80;80.40
33508;DHT22;25568;37.410;-122.096;2023-10-19T07:38:45;22.80;80.50
33508;DHT22;25568;37.410;-122.096;2023-10-19T07:41:14;22.80;80.50
33508;DHT22;25568;37.410;-122.096;2023-10-19T07:43:43;22.80;80.40
33508;DHT22;25568;37.410;-122.096;2023-10-19T07:46:12;22.80;80.50
33508;DHT22;25568;37.410;-122.096;2023-10-19T07:48:41;22.80;80.50
33508;DHT22;25568;37.410;-122.096;2023-10-19T07:51:09;22.80;80.40
33508;DHT22;25568;37.410;-122.096;2023-10-19T07:53:40;22.80;80.40
33508;DHT22;25568;37.410;-122.096;2023-10-19T07:56:09;22.80;80.80
33508;DHT22;25568;37.410;-122.096;2023-10-19T07:58:38;22.80;80.70
33508;DHT22;25568;37.410;-122.096;2023-10-19T08:01:08;22.80;80.50
33508;DHT22;25568;37.410;-122.096;2023-10-19T08:03:38;22.80;80.70
33508;DHT22;25568;37.410;-122.096;2023-10-19T08:06:07;22.80;80.70
33508;DHT22;25568;37.410;-122.096;2023-10-19T08:08:36;22.70;80.70
33508;DHT22;25568;37.410;-122.096;2023-10-19T08:11:07;22.70;80.60
33508;DHT22;25568;37.410;-122.096;2023-10-19T08:13:36;22.70;80.70
33508;DHT22;25568;37.410;-122.096;2023-10-19T08:16:06;22.70;80.90
33508;DHT22;25568;37.410;-122.096;2023-10-19T08:18:36;22.70;80.90
33508;DHT22;25568;37.410;-122.096;2023-10-19T08:21:05;22.70;80.90
33508;DHT22;25568;37.410;-122.096;2023-10-19T08:23:34;22.70;80.90
33508;DHT22;25568;37.410;-122.096;2023-10-19T08:26:06;22.70;77.10
33508;DHT22;25568;37.410;-122.096;2023-10-19T08:28:35;22.40;73.20
33508;DHT22;25568;37.410;-122.096;2023-10-19T08:31:07;22.10;69.80
33508;DHT22;25568;37.410;-122.096;2023-10-19T08:33:36;22.00;69.30
33508;DHT22;25568;37.410;-122.096;2023-10-19T08:36:17;21.90;68.20
33508;DHT22;25568;37.410;-122.096;2023-10-19T08:38:46;21.80;67.00
33508;DHT22;25568;37.410;-122.096;2023-10-19T08:41:17;21.70;68.00
33508;DHT22;25568;37.410;-122.096;2023-10-19T08:43:46;21.80;72.70
33508;DHT22;25568;37.410;-122.096;2023-10-19T08:46:17;21.90;75.00
33508;DHT22;25568;37.410;-122.096;2023-10-19T08:48:46;21.90;76.70
33508;DHT22;25568;37.410;-122.096;2023-10-19T08:51:15;21.90;78.20
33508;DHT22;25568;37.410;-122.096;2023-10-19T08:53:44;22.00;80.20
33508;DHT22;25568;37.410;-122.096;2023-10-19T08:56:16;22.00;81.10
33508;DHT22;25568;37.410;-122.096;2023-10-19T08:58:45;22.00;82.20
33508;DHT22;25568;37.410;-122.096;2023-10-19T09:01:14;22.10;83.50
33508;DHT22;25568;37.410;-122.096;2023-10-19T09:03:44;22.10;84.70
33508;DHT22;25568;37.410;-122.096;2023-10-19T09:06:13;22.10;85.10
33508;DHT22;25568;37.410;-122.096;2023-10-19T09:08:42;22.10;85.90
33508;DHT22;25568;37.410;-122.096;2023-10-19T09:11:16;22.10;86.10
33508;DHT22;25568;37.410;-122.096;2023-10-19T09:13:48;22.20;86.30
33508;DHT22;25568;37.410;-122.096;2023-10-19T09:16:18;22.20;85.90
33508;DHT22;25568;37.410;-122.096;2023-10-19T09:18:47;22.10;85.40
33508;DHT22;25568;37.410;-122.096;2023-10-19T09:21:17;22.20;85.80
33508;DHT22;25568;37.410;-122.096;2023-10-19T09:23:56;22.20;85.10
33508;DHT22;25568;37.410;-122.096;2023-10-19T09:26:26;22.20;85.30
33508;DHT22;25568;37.410;-122.096;2023-10-19T09:28:55;22.20;85.00
33508;DHT22;25568;37.410;-122.096;2023-10-19T09:31:24;22.20;85.00
33508;DHT22;25568;37.410;-122.096;2023-10-19T09:33:53;22.20;84.80
33508;DHT22;25568;37.410;-122.096;2023-10-19T09:36:25;22.30;84.60
33508;DHT22;25568;37.410;-122.096;2023-10-19T09:38:56;22.30;84.80
33508;DHT22;25568;37.410;-122.096;2023-10-19T09:41:27;22.30;84.50
33508;DHT22;25568;37.410;-122.096;2023-10-19T09:44:01;22.30;84.30
33508;DHT22;25568;37.410;-122.096;2023-10-19T09:46:33;22.30;84.10
33508;DHT22;25568;37.410;-122.096;2023-10-19T09:49:05;22.30;84.00
33508;DHT22;25568;37.410;-122.096;2023-10-19T09:51:39;22.30;83.60
33508;DHT22;25568;37.410;-122.096;2023-10-19T09:54:14;22.30;83.60
33508;DHT22;25568;37.410;-122.096;2023-10-19T09:56:52;22.30;83.20
33508;DHT22;25568;37.410;-122.096;2023-10-19T09:59:31;22.30;83.10
33508;DHT22;25568;37.410;-122.096;2023-10-19T10:02:09;22.30;83.10
33508;DHT22;25568;37.410;-122.096;2023-10-19T10:04:39;22.30;82.80
33508;DHT22;25568;37.410;-122.096;2023-10-19T10:07:09;22.30;83.00
33508;DHT22;25568;37.410;-122.096;2023-10-19T10:09:40;22.30;83.10
33508;DHT22;25568;37.410;-122.096;2023-10-19T10:12:19;22.30;83.00
33508;DHT22;25568;37.410;-122.096;2023-10-19T10:14:59;22.30;82.80
33508;DHT22;25568;37.410;-122.096;2023-10-19T10:17:33;22.30;82.70
33508;DHT22;25568;37.410;-122.096;2023-10-19T10:20:30;22.30;82.70
33508;DHT22;25568;37.410;-122.096;2023-10-19T10:23:20;22.30;82.80
33508;DHT22;25568;37.410;-122.096;2023-10-19T10:25:51;22.30;83.00
33508;DHT22;25568;37.410;-122.096;2023-10-19T10:28:22;22.30;82.50
33508;DHT22;25568;37.410;-122.096;2023-10-19T10:31:11;22.30;82.60
33508;DHT22;25568;37.410;-122.096;2023-10-19T10:33:45;22.30;82.30
33508;DHT22;25568;37.410;-122.096;2023-10-19T10:36:15;22.30;82.50
33508;DHT22;25568;37.410;-122.096;2023-10-19T10:38:46;22.30;82.40
33508;DHT22;25568;37.410;-122.096;2023-10-19T10:41:21;22.30;82.00
33508;DHT22;25568;37.410;-122.096;2023-10-19T10:43:54;22.20;82.00
33508;DHT22;25568;37.410;-122.096;2023-10-19T10:46:24;22.20;81.70
33508;DHT22;25568;37.410;-122.096;2023-10-19T10:48:54;22.30;81.70
33508;DHT22;25568;37.410;-122.096;2023-10-19T10:51:25;22.30;81.50
33508;DHT22;25568;37.410;-122.096;2023-10-19T10:53:54;22.20;81.50
33508;DHT22;25568;37.410;-122.096;2023-10-19T10:56:24;22.30;81.60
33508;DHT22;25568;37.410;-122.096;2023-10-19T10:58:54;22.20;81.20
33508;DHT22;25568;37.410;-122.096;2023-10-19T11:01:29;22.20;81.20
33508;DHT22;25568;37.410;-122.096;2023-10-19T11:04:09;22.20;81.30
33508;DHT22;25568;37.410;-122.096;2023-10-19T11:06:51;22.20;81.30
33508;DHT22;25568;37.410;-122.096;2023-10-19T11:09:22;22.20;81.20
33508;DHT22;25568;37.410;-122.096;2023-10-19T11:11:51;22.20;81.20
33508;DHT22;25568;37.410;-122.096;2023-10-19T11:14:22;22.20;81.20
33508;DHT22;25568;37.410;-122.096;2023-10-19T11:16:52;22.20;81.20
33508;DHT22;25568;37.410;-122.096;2023-10-19T11:19:20;22.20;81.10
33508;DHT22;25568;37.410;-122.096;2023-10-19T11:21:54;22.20;81.10
33508;DHT22;25568;37.410;-122.096;2023-10-19T11:24:27;22.20;81.20
33508;DHT22;25568;37.410;-122.096;2023-10-19T11:27:00;22.20;81.40
33508;DHT22;25568;37.410;-122.096;2023-10-19T11:29:30;22.20;81.40
33508;DHT22;25568;37.410;-122.096;2023-10-19T11:32:00;22.20;81.50
33508;DHT22;25568;37.410;-122.096;2023-10-19T11:34:29;22.20;81.60
33508;DHT22;25568;37.410;-122.096;2023-10-19T11:37:01;22.20;81.70
33508;DHT22;25568;37.410;-122.096;2023-10-19T11:39:31;22.20;81.30
33508;DHT22;25568;37.410;-122.096;2023-10-19T11:42:00;22.20;81.30
33508;DHT22;25568;37.410;-122.096;2023-10-19T11:44:30;22.20;81.00
33508;DHT22;25568;37.410;-122.096;2023-10-19T11:46:59;22.20;81.00
33508;DHT22;25568;37.410;-122.096;2023-10-19T11:49:28;22.20;81.00
33508;DHT22;25568;37.410;-122.096;2023-10-19T11:51:57;22.20;81.50
33508;DHT22;25568;37.410;-122.096;2023-10-19T11:54:26;22.20;80.70
33508;DHT22;25568;37.410;-122.096;2023-10-19T11:56:56;22.20;80.70
33508;DHT22;25568;37.410;-122.096;2023-10-19T11:59:24;22.20;80.50
33508;DHT22;25568;37.410;-122.096;2023-10-19T12:01:55;22.20;80.60
33508;DHT22;25568;37.410;-122.096;2023-10-19T12:04:25;22.20;80.70
33508;DHT22;25568;37.410;-122.096;2023-10-19T12:06:54;22.20;80.60
33508;DHT22;25568;37.410;-122.096;2023-10-19T12:09:23;22.20;81.30
33508;DHT22;25568;37.410;-122.096;2023-10-19T12:11:52;22.20;80.30
33508;DHT22;25568;37.410;-122.096;2023-10-19T12:14:22;22.20;80.30
33508;DHT22;25568;37.410;-122.096;2023-10-19T12:16:51;22.20;80.10
33508;DHT22;25568;37.410;-122.096;2023-10-19T12:22:05;22.20;80.20
33508;DHT22;25568;37.410;-122.096;2023-10-19T12:24:35;22.10;80.10
33508;DHT22;25568;37.410;-122.096;2023-10-19T12:27:04;22.20;79.90
33508;DHT22;25568;37.410;-122.096;2023-10-19T12:29:34;22.20;80.10
33508;DHT22;25568;37.410;-122.096;2023-10-19T12:32:03;22.20;79.90
33508;DHT22;25568;37.410;-122.096;2023-10-19T12:34:34;22.10;79.90
33508;DHT22;25568;37.410;-122.096;2023-10-19T12:37:03;22.10;80.40
33508;DHT22;25568;37.410;-122.096;2023-10-19T12:39:33;22.10;80.00
33508;DHT22;25568;37.410;-122.096;2023-10-19T12:42:09;22.10;79.90
33508;DHT22;25568;37.410;-122.096;2023-10-19T12:44:38;22.10;79.70
33508;DHT22;25568;37.410;-122.096;2023-10-19T12:47:11;22.10;79.50
33508;DHT22;25568;37.410;-122.096;2023-10-19T12:49:43;22.10;79.40
33508;DHT22;25568;37.410;-122.096;2023-10-19T12:52:13;22.10;79.50
33508;DHT22;25568;37.410;-122.096;2023-10-19T12:54:42;22.10;79.00
33508;DHT22;25568;37.410;-122.096;2023-10-19T12:57:14;22.10;79.30
33508;DHT22;25568;37.410;-122.096;2023-10-19T12:59:43;22.10;79.40
33508;DHT22;25568;37.410;-122.096;2023-10-19T13:02:12;22.10;79.20
33508;DHT22;25568;37.410;-122.096;2023-10-19T13:04:43;22.10;79.00
33508;DHT22;25568;37.410;-122.096;2023-10-19T13:07:13;22.10;79.10
33508;DHT22;25568;37.410;-122.096;2023-10-19T13:09:41;22.10;79.20
33508;DHT22;25568;37.410;-122.096;2023-10-19T13:12:11;22.00;79.20
33508;DHT22;25568;37.410;-122.096;2023-10-19T13:14:40;22.00;79.00
33508;DHT22;25568;37.410;-122.096;2023-10-19T13:17:11;22.10;79.10
33508;DHT22;25568;37.410;-122.096;2023-10-19T13:19:42;22.10;79.20
33508;DHT22;25568;37.410;-122.096;2023-10-19T13:22:12;22.00;79.90
33508;DHT22;25568;37.410;-122.096;2023-10-19T13:24:41;22.00;79.10
33508;DHT22;25568;37.410;-122.096;2023-10-19T13:27:10;22.00;79.20
33508;DHT22;25568;37.410;-122.096;2023-10-19T13:29:39;22.00;79.00
33508;DHT22;25568;37.410;-122.096;2023-10-19T13:32:08;22.00;79.10
33508;DHT22;25568;37.410;-122.096;2023-10-19T13:34:37;22.00;79.20
33508;DHT22;25568;37.410;-122.096;2023-10-19T13:37:09;22.00;79.10
33508;DHT22;25568;37.410;-122.096;2023-10-19T13:39:38;22.00;79.20
33508;DHT22;25568;37.410;-122.096;2023-10-19T13:42:07;22.00;79.20
33508;DHT22;25568;37.410;-122.096;2023-10-19T13:44:36;22.00;79.00
33508;DHT22;25568;37.410;-122.096;2023-10-19T13:47:06;21.90;78.90
33508;DHT22;25568;37.410;-122.096;2023-10-19T13:49:35;21.90;78.90
33508;DHT22;25568;37.410;-122.096;2023-10-19T13:52:04;21.90;78.90
33508;DHT22;25568;37.410;-122.096;2023-10-19T13:54:37;21.90;78.80
33508;DHT22;25568;37.410;-122.096;2023-10-19T13:57:06;21.90;79.00
33508;DHT22;25568;37.410;-122.096;2023-10-19T13:59:36;21.90;78.90
33508;DHT22;25568;37.410;-122.096;2023-10-19T14:02:05;21.90;78.90
33508;DHT22;25568;37.410;-122.096;2023-10-19T14:04:34;21.90;78.90
33508;DHT22;25568;37.410;-122.096;2023-10-19T14:07:03;21.80;78.90
33508;DHT22;25568;37.410;-122.096;2023-10-19T14:09:33;21.90;78.70
33508;DHT22;25568;37.410;-122.096;2023-10-19T14:12:04;21.90;78.90
33508;DHT22;25568;37.410;-122.096;2023-10-19T14:14:32;21.90;78.80
33508;DHT22;25568;37.410;-122.096;2023-10-19T14:17:01;21.90;78.40
33508;DHT22;25568;37.410;-122.096;2023-10-19T14:19:30;21.80;78.60
33508;DHT22;25568;37.410;-122.096;2023-10-19T14:21:59;21.80;78.60
33508;DHT22;25568;37.410;-122.096;2023-10-19T14:24:29;21.80;78.00
33508;DHT22;25568;37.410;-122.096;2023-10-19T14:26:58;21.70;78.00
33508;DHT22;25568;37.410;-122.096;2023-10-19T14:29:28;21.60;77.50
33508;DHT22;25568;37.410;-122.096;2023-10-19T14:31:57;21.50;77.40
33508;DHT22;25568;37.410;-122.096;2023-10-19T14:34:26;21.50;77.10
33508;DHT22;25568;37.410;-122.096;2023-10-19T14:36:55;21.50;77.10
33508;DHT22;25568;37.410;-122.096;2023-10-19T14:39:24;21.40;77.20
33508;DHT22;25568;37.410;-122.096;2023-10-19T14:41:52;21.40;76.80
33508;DHT22;25568;37.410;-122.096;2023-10-19T14:44:21;21.30;76.30
33508;DHT22;25568;37.410;-122.096;2023-10-19T14:46:52;21.40;77.60
33508;DHT22;25568;37.410;-122.096;2023-10-19T14:49:21;21.30;79.20
33508;DHT22;25568;37.410;-122.096;2023-10-19T14:51:49;21.40;82.50
33508;DHT22;25568;37.410;-122.096;2023-10-19T14:54:18;21.40;83.30
33508;DHT22;25568;37.410;-122.096;2023-10-19T14:56:47;21.40;82.00
33508;DHT22;25568;37.410;-122.096;2023-10-19T14:59:16;21.30;82.30
33508;DHT22;25568;37.410;-122.096;2023-10-19T15:01:45;21.40;83.60
33508;DHT22;25568;37.410;-122.096;2023-10-19T15:04:15;21.50;84.50
33508;DHT22;25568;37.410;-122.096;2023-10-19T15:06:44;21.50;84.50
33508;DHT22;25568;37.410;-122.096;2023-10-19T15:09:13;21.50;85.10
33508;DHT22;25568;37.410;-122.096;2023-10-19T15:11:47;21.50;85.00
33508;DHT22;25568;37.410;-122.096;2023-10-19T15:14:16;21.50;85.40
33508;DHT22;25568;37.410;-122.096;2023-10-19T15:16:44;21.50;85.70